sensor_id;sensor_type;location;lat;lon;timestamp;temperature;humidity
52669;DHT22;59898;52.786;6.892;2023-05-10T00:02:10;14.90;99.90
52669;DHT22;59898;52.786;6.892;2023-05-10T00:05:32;14.90;99.90
52669;DHT22;59898;52.786;6.892;2023-05-10T00:08:52;14.70;99.90
52669;DHT22;59898;52.786;6.892;2023-05-10T00:12:13;14.60;99.90
52669;DHT22;59898;52.786;6.892;2023-05-10T00:15:33;14.60;99.90
52669;DHT22;59898;52.786;6.892;2023-05-10T00:18:55;14.50;99.90
52669;DHT22;59898;52.786;6.892;2023-05-10T00:22:15;14.40;99.90
52669;DHT22;59898;52.786;6.892;2023-05-10T00:25:36;14.40;99.90
52669;DHT22;59898;52.786;6.892;2023-05-10T00:28:56;14.30;99.90
52669;DHT22;59898;52.786;6.892;2023-05-10T00:32:18;14.30;99.90
52669;DHT22;59898;52.786;6.892;2023-05-10T00:35:39;14.20;99.90
52669;DHT22;59898;52.786;6.892;2023-05-10T00:38:59;14.20;99.90
52669;DHT22;59898;52.786;6.892;2023-05-10T00:42:20;14.20;99.90
52669;DHT22;59898;52.786;6.892;2023-05-10T00:45:41;14.10;99.90
52669;DHT22;59898;52.786;6.892;2023-05-10T00:49:02;14.00;99.90
52669;DHT22;59898;52.786;6.892;2023-05-10T00:52:23;14.00;99.90
52669;DHT22;59898;52.786;6.892;2023-05-10T00:55:44;14.00;99.90
52669;DHT22;59898;52.786;6.892;2023-05-10T00:59:04;14.00;99.90
52669;DHT22;59898;52.786;6.892;2023-05-10T01:02:25;13.90;99.90
52669;DHT22;59898;52.786;6.892;2023-05-10T01:05:45;13.90;99.90
52669;DHT22;59898;52.786;6.892;2023-05-10T01:09:06;13.90;99.90
52669;DHT22;59898;52.786;6.892;2023-05-10T01:12:27;13.90;99.90
52669;DHT22;59898;52.786;6.892;2023-05-10T01:15:47;13.80;99.90
52669;DHT22;59898;52.786;6.892;2023-05-10T01:19:16;13.80;99.90
52669;DHT22;59898;52.786;6.892;2023-05-10T01:23:07;13.80;99.90
52669;DHT22;59898;52.786;6.892;2023-05-10T01:34:14;13.80;99.90
52669;DHT22;59898;52.786;6.892;2023-05-10T01:37:42;13.80;99.90
52669;DHT22;59898;52.786;6.892;2023-05-10T01:41:36;13.80;99.90
52669;DHT22;59898;52.786;6.892;2023-05-10T01:45:07;13.80;99.90
52669;DHT22;59898;52.786;6.892;2023-05-10T01:48:32;13.70;99.90
52669;DHT22;59898;52.786;6.892;2023-05-10T01:51:55;13.70;99.90
52669;DHT22;59898;52.786;6.892;2023-05-10T01:55:19;13.70;99.90
52669;DHT22;59898;52.786;6.892;2023-05-10T01:58:43;13.70;99.90
52669;DHT22;59898;52.786;6.892;2023-05-10T02:02:07;13.70;99.90
52669;DHT22;59898;52.786;6.892;2023-05-10T02:05:32;13.70;99.90
52669;DHT22;59898;52.786;6.892;2023-05-10T02:08:53;13.70;99.90
52669;DHT22;59898;52.786;6.892;2023-05-10T02:12:16;13.70;99.90
52669;DHT22;59898;52.786;6.892;2023-05-10T02:15:38;13.70;99.90
52669;DHT22;59898;52.786;6.892;2023-05-10T02:19:01;13.70;99.90
52669;DHT22;59898;52.786;6.892;2023-05-10T02:22:22;13.60;99.90
52669;DHT22;59898;52.786;6.892;2023-05-10T02:25:44;13.70;99.90
52669;DHT22;59898;52.786;6.892;2023-05-10T02:29:06;13.60;99.90
52669;DHT22;59898;52.786;6.892;2023-05-10T02:32:28;13.60;99.90
52669;DHT22;59898;52.786;6.892;2023-05-10T02:35:50;13.60;99.90
52669;DHT22;59898;52.786;6.892;2023-05-10T02:39:11;13.60;99.90
52669;DHT22;59898;52.786;6.892;2023-05-10T02:42:36;13.60;99.90
52669;DHT22;59898;52.786;6.892;2023-05-10T02:45:57;13.60;99.90
52669;DHT22;59898;52.786;6.892;2023-05-10T02:49:18;13.60;99.90
52669;DHT22;59898;52.786;6.892;2023-05-10T02:52:50;13.60;99.90
52669;DHT22;59898;52.786;6.892;2023-05-10T02:56:53;13.50;99.90
52669;DHT22;59898;52.786;6.892;2023-05-10T03:00:06;13.50;99.90
52669;DHT22;59898;52.786;6.892;2023-05-10T03:03:27;13.50;99.90
52669;DHT22;59898;52.786;6.892;2023-05-10T03:06:47;13.50;99.90
52669;DHT22;59898;52.786;6.892;2023-05-10T03:10:09;13.50;99.90
52669;DHT22;59898;52.786;6.892;2023-05-10T03:13:35;13.50;99.90
52669;DHT22;59898;52.786;6.892;2023-05-10T03:17:09;13.50;99.90
52669;DHT22;59898;52.786;6.892;2023-05-10T03:20:36;13.50;99.90
52669;DHT22;59898;52.786;6.892;2023-05-10T03:24:08;13.50;99.90
52669;DHT22;59898;52.786;6.892;2023-05-10T03:27:32;13.50;99.90
52669;DHT22;59898;52.786;6.892;2023-05-10T03:30:54;13.40;99.90
52669;DHT22;59898;52.786;6.892;2023-05-10T03:34:15;13.70;99.90
52669;DHT22;59898;52.786;6.892;2023-05-10T03:37:36;13.40;99.90
52669;DHT22;59898;52.786;6.892;2023-05-10T03:40:57;13.40;99.90
52669;DHT22;59898;52.786;6.892;2023-05-10T03:44:17;13.40;99.90
52669;DHT22;59898;52.786;6.892;2023-05-10T03:47:38;13.40;99.90
52669;DHT22;59898;52.786;6.892;2023-05-10T03:50:58;13.30;99.90
52669;DHT22;59898;52.786;6.892;2023-05-10T03:54:19;13.40;99.90
52669;DHT22;59898;52.786;6.892;2023-05-10T03:57:40;13.30;99.90
52669;DHT22;59898;52.786;6.892;2023-05-10T04:01:01;13.40;99.90
52669;DHT22;59898;52.786;6.892;2023-05-10T04:04:21;13.40;99.90
52669;DHT22;59898;52.786;6.892;2023-05-10T04:07:43;13.30;99.90
52669;DHT22;59898;52.786;6.892;2023-05-10T04:11:08;13.30;99.90
52669;DHT22;59898;52.786;6.892;2023-05-10T04:14:29;13.30;99.90
52669;DHT22;59898;52.786;6.892;2023-05-10T04:17:50;13.30;99.90
52669;DHT22;59898;52.786;6.892;2023-05-10T04:21:14;13.30;99.90
52669;DHT22;59898;52.786;6.892;2023-05-10T04:24:34;13.30;99.90
52669;DHT22;59898;52.786;6.892;2023-05-10T04:27:55;13.30;99.90
52669;DHT22;59898;52.786;6.892;2023-05-10T04:31:15;13.30;99.90
52669;DHT22;59898;52.786;6.892;2023-05-10T04:34:36;13.30;99.90
52669;DHT22;59898;52.786;6.892;2023-05-10T04:37:57;13.20;99.90
52669;DHT22;59898;52.786;6.892;2023-05-10T04:41:18;13.30;99.90
52669;DHT22;59898;52.786;6.892;2023-05-10T04:44:38;13.20;99.90
52669;DHT22;59898;52.786;6.892;2023-05-10T04:47:59;13.20;99.90
52669;DHT22;59898;52.786;6.892;2023-05-10T04:51:19;13.30;99.90
52669;DHT22;59898;52.786;6.892;2023-05-10T04:54:40;13.30;99.90
52669;DHT22;59898;52.786;6.892;2023-05-10T04:58:01;13.20;99.90
52669;DHT22;59898;52.786;6.892;2023-05-10T05:01:23;13.20;99.90
52669;DHT22;59898;52.786;6.892;2023-05-10T05:04:43;13.20;99.90
52669;DHT22;59898;52.786;6.892;2023-05-10T05:08:04;13.20;99.90
52669;DHT22;59898;52.786;6.892;2023-05-10T05:11:24;13.20;99.90
52669;DHT22;59898;52.786;6.892;2023-05-10T05:14:46;13.20;99.90
52669;DHT22;59898;52.786;6.892;2023-05-10T05:18:06;13.20;99.90
52669;DHT22;59898;52.786;6.892;2023-05-10T05:21:27;13.20;99.90
52669;DHT22;59898;52.786;6.892;2023-05-10T05:24:47;13.20;99.90
52669;DHT22;59898;52.786;6.892;2023-05-10T05:28:08;13.20;99.90
52669;DHT22;59898;52.786;6.892;2023-05-10T05:31:29;13.20;99.90
52669;DHT22;59898;52.786;6.892;2023-05-10T05:34:49;13.10;99.90
52669;DHT22;59898;52.786;6.892;2023-05-10T05:38:10;13.20;99.90
52669;DHT22;59898;52.786;6.892;2023-05-10T05:41:31;13.10;99.90
52669;DHT22;59898;52.786;6.892;2023-05-10T05:44:52;13.10;99.90
52669;DHT22;59898;52.786;6.892;2023-05-10T05:48:12;13.10;99.90
52669;DHT22;59898;52.786;6.892;2023-05-10T05:51:33;13.10;99.90
52669;DHT22;59898;52.786;6.892;2023-05-10T05:54:55;13.10;99.90
52669;DHT22;59898;52.786;6.892;2023-05-10T05:58:15;13.10;99.90
52669;DHT22;59898;52.786;6.892;2023-05-10T06:01:36;13.00;99.90
52669;DHT22;59898;52.786;6.892;2023-05-10T06:04:56;13.10;99.90
52669;DHT22;59898;52.786;6.892;2023-05-10T06:08:17;13.10;99.90
52669;DHT22;59898;52.786;6.892;2023-05-10T06:11:37;13.10;99.90
52669;DHT22;59898;52.786;6.892;2023-05-10T06:14:58;13.00;99.90
52669;DHT22;59898;52.786;6.892;2023-05-10T06:18:18;13.10;99.90
52669;DHT22;59898;52.786;6.892;2023-05-10T06:21:39;13.10;99.90
52669;DHT22;59898;52.786;6.892;2023-05-10T06:25:00;13.10;99.90
52669;DHT22;59898;52.786;6.892;2023-05-10T06:28:20;13.10;99.90
52669;DHT22;59898;52.786;6.892;2023-05-10T06:31:41;13.10;99.90
52669;DHT22;59898;52.786;6.892;2023-05-10T06:35:02;13.20;99.90
52669;DHT22;59898;52.786;6.892;2023-05-10T06:38:23;13.20;99.90
52669;DHT22;59898;52.786;6.892;2023-05-10T06:41:43;13.20;99.90
52669;DHT22;59898;52.786;6.892;2023-05-10T06:45:04;13.20;99.90
52669;DHT22;59898;52.786;6.892;2023-05-10T06:48:25;13.20;99.90
52669;DHT22;59898;52.786;6.892;2023-05-10T06:51:46;13.20;99.90
52669;DHT22;59898;52.786;6.892;2023-05-10T06:55:07;13.20;99.90
52669;DHT22;59898;52.786;6.892;2023-05-10T06:58:29;13.20;99.90
52669;DHT22;59898;52.786;6.892;2023-05-10T07:01:49;13.30;99.90
52669;DHT22;59898;52.786;6.892;2023-05-10T07:05:10;13.30;99.90
52669;DHT22;59898;52.786;6.892;2023-05-10T07:08:31;13.30;99.90
52669;DHT22;59898;52.786;6.892;2023-05-10T07:11:52;13.30;99.90
52669;DHT22;59898;52.786;6.892;2023-05-10T07:15:12;13.30;99.90
52669;DHT22;59898;52.786;6.892;2023-05-10T07:18:33;13.30;99.90
52669;DHT22;59898;52.786;6.892;2023-05-10T07:21:53;13.40;99.90
52669;DHT22;59898;52.786;6.892;2023-05-10T07:25:14;13.40;99.90
52669;DHT22;59898;52.786;6.892;2023-05-10T07:28:35;13.40;99.90
52669;DHT22;59898;52.786;6.892;2023-05-10T07:31:57;13.50;99.90
52669;DHT22;59898;52.786;6.892;2023-05-10T07:35:18;13.40;99.90
52669;DHT22;59898;52.786;6.892;2023-05-10T07:38:38;13.50;99.90
52669;DHT22;59898;52.786;6.892;2023-05-10T07:41:59;13.50;99.90
52669;DHT22;59898;52.786;6.892;2023-05-10T07:45:20;13.50;99.90
52669;DHT22;59898;52.786;6.892;2023-05-10T07:48:41;13.50;99.90
52669;DHT22;59898;52.786;6.892;2023-05-10T07:52:03;13.50;99.90
52669;DHT22;59898;52.786;6.892;2023-05-10T07:55:23;13.50;99.90
52669;DHT22;59898;52.786;6.892;2023-05-10T07:58:44;13.70;99.90
52669;DHT22;59898;52.786;6.892;2023-05-10T08:02:05;13.70;99.90
52669;DHT22;59898;52.786;6.892;2023-05-10T08:05:26;13.70;99.90
52669;DHT22;59898;52.786;6.892;2023-05-10T08:08:47;13.80;99.90
52669;DHT22;59898;52.786;6.892;2023-05-10T08:12:09;13.80;99.90
52669;DHT22;59898;52.786;6.892;2023-05-10T08:15:30;13.80;99.90
52669;DHT22;59898;52.786;6.892;2023-05-10T08:18:50;13.90;99.90
52669;DHT22;59898;52.786;6.892;2023-05-10T08:22:11;13.90;99.90
52669;DHT22;59898;52.786;6.892;2023-05-10T08:25:32;13.90;99.90
52669;DHT22;59898;52.786;6.892;2023-05-10T08:28:52;14.00;99.90
52669;DHT22;59898;52.786;6.892;2023-05-10T08:32:13;13.90;99.90
52669;DHT22;59898;52.786;6.892;2023-05-10T08:35:34;14.00;99.90
52669;DHT22;59898;52.786;6.892;2023-05-10T08:38:55;14.00;99.90
52669;DHT22;59898;52.786;6.892;2023-05-10T08:42:19;14.00;99.90
52669;DHT22;59898;52.786;6.892;2023-05-10T08:45:43;14.00;99.90
52669;DHT22;59898;52.786;6.892;2023-05-10T08:49:07;13.90;99.90
52669;DHT22;59898;52.786;6.892;2023-05-10T08:52:30;13.90;99.90
52669;DHT22;59898;52.786;6.892;2023-05-10T08:55:52;14.00;99.90
52669;DHT22;59898;52.786;6.892;2023-05-10T08:59:13;13.90;99.90
52669;DHT22;59898;52.786;6.892;2023-05-10T09:02:35;14.00;99.90
52669;DHT22;59898;52.786;6.892;2023-05-10T09:05:57;14.10;99.90
52669;DHT22;59898;52.786;6.892;2023-05-10T09:09:18;14.10;99.90
52669;DHT22;59898;52.786;6.892;2023-05-10T09:12:40;14.20;99.90
52669;DHT22;59898;52.786;6.892;2023-05-10T09:16:01;14.20;99.90
52669;DHT22;59898;52.786;6.892;2023-05-10T09:19:21;14.20;99.90
52669;DHT22;59898;52.786;6.892;2023-05-10T09:22:42;14.20;99.90
52669;DHT22;59898;52.786;6.892;2023-05-10T09:26:04;14.30;99.90
52669;DHT22;59898;52.786;6.892;2023-05-10T09:29:25;14.30;99.90
52669;DHT22;59898;52.786;6.892;2023-05-10T09:32:47;14.30;99.90
52669;DHT22;59898;52.786;6.892;2023-05-10T09:36:08;14.30;99.90
52669;DHT22;59898;52.786;6.892;2023-05-10T09:39:38;14.30;99.90
52669;DHT22;59898;52.786;6.892;2023-05-10T09:43:08;14.30;99.90
52669;DHT22;59898;52.786;6.892;2023-05-10T09:46:28;14.30;99.90
52669;DHT22;59898;52.786;6.892;2023-05-10T09:49:50;14.30;99.90
52669;DHT22;59898;52.786;6.892;2023-05-10T09:53:14;14.50;99.90
52669;DHT22;59898;52.786;6.892;2023-05-10T09:56:36;14.60;99.90
52669;DHT22;59898;52.786;6.892;2023-05-10T10:00:00;14.70;99.90
52669;DHT22;59898;52.786;6.892;2023-05-10T10:03:21;14.80;99.90
52669;DHT22;59898;52.786;6.892;2023-05-10T10:06:42;14.90;99.90
52669;DHT22;59898;52.786;6.892;2023-05-10T10:10:03;15.00;99.90
52669;DHT22;59898;52.786;6.892;2023-05-10T10:13:25;15.10;99.90
52669;DHT22;59898;52.786;6.892;2023-05-10T10:16:46;15.20;99.90
52669;DHT22;59898;52.786;6.892;2023-05-10T10:20:07;15.20;99.90
52669;DHT22;59898;52.786;6.892;2023-05-10T10:23:28;15.20;99.90
52669;DHT22;59898;52.786;6.892;2023-05-10T10:26:50;15.20;99.90
52669;DHT22;59898;52.786;6.892;2023-05-10T10:33:55;15.10;99.90
52669;DHT22;59898;52.786;6.892;2023-05-10T10:37:17;15.20;99.90
52669;DHT22;59898;52.786;6.892;2023-05-10T10:40:38;15.20;99.90
52669;DHT22;59898;52.786;6.892;2023-05-10T10:48:23;15.30;99.90
52669;DHT22;59898;52.786;6.892;2023-05-10T10:52:13;15.20;99.90
52669;DHT22;59898;52.786;6.892;2023-05-10T10:55:34;15.20;99.90
52669;DHT22;59898;52.786;6.892;2023-05-10T10:58:59;15.20;99.90
52669;DHT22;59898;52.786;6.892;2023-05-10T11:02:43;15.30;99.90
52669;DHT22;59898;52.786;6.892;2023-05-10T11:06:06;15.30;99.90
52669;DHT22;59898;52.786;6.892;2023-05-10T11:09:28;15.30;99.90
52669;DHT22;59898;52.786;6.892;2023-05-10T11:13:06;15.30;99.90
52669;DHT22;59898;52.786;6.892;2023-05-10T11:16:26;15.30;99.90
52669;DHT22;59898;52.786;6.892;2023-05-10T11:20:13;15.30;99.90
52669;DHT22;59898;52.786;6.892;2023-05-10T11:27:04;15.30;99.90
52669;DHT22;59898;52.786;6.892;2023-05-10T11:30:25;15.30;99.90
52669;DHT22;59898;52.786;6.892;2023-05-10T11:33:50;15.40;99.90
52669;DHT22;59898;52.786;6.892;2023-05-10T11:37:11;15.50;99.90
52669;DHT22;59898;52.786;6.892;2023-05-10T11:40:32;15.50;99.90
52669;DHT22;59898;52.786;6.892;2023-05-10T11:43:53;15.60;99.90
52669;DHT22;59898;52.786;6.892;2023-05-10T11:47:14;15.70;99.90
52669;DHT22;59898;52.786;6.892;2023-05-10T11:50:35;15.60;99.90
52669;DHT22;59898;52.786;6.892;2023-05-10T11:53:56;15.70;99.90
52669;DHT22;59898;52.786;6.892;2023-05-10T11:57:25;15.70;99.90
52669;DHT22;59898;52.786;6.892;2023-05-10T12:00:46;15.70;99.90
52669;DHT22;59898;52.786;6.892;2023-05-10T12:04:07;15.70;99.90
52669;DHT22;59898;52.786;6.892;2023-05-10T12:07:27;15.80;99.90
52669;DHT22;59898;52.786;6.892;2023-05-10T12:10:48;15.90;99.90
52669;DHT22;59898;52.786;6.892;2023-05-10T12:14:09;15.90;99.90
52669;DHT22;59898;52.786;6.892;2023-05-10T12:17:30;16.00;99.90
52669;DHT22;59898;52.786;6.892;2023-05-10T12:20:53;16.00;99.90
52669;DHT22;59898;52.786;6.892;2023-05-10T12:24:14;16.00;99.90
52669;DHT22;59898;52.786;6.892;2023-05-10T12:27:38;16.00;99.90
52669;DHT22;59898;52.786;6.892;2023-05-10T12:31:02;16.00;99.90
52669;DHT22;59898;52.786;6.892;2023-05-10T12:37:44;15.90;99.90
52669;DHT22;59898;52.786;6.892;2023-05-10T12:41:12;15.90;99.90
52669;DHT22;59898;52.786;6.892;2023-05-10T12:44:33;15.80;99.90
52669;DHT22;59898;52.786;6.892;2023-05-10T12:47:54;15.80;99.90
52669;DHT22;59898;52.786;6.892;2023-05-10T12:51:14;15.80;99.90
52669;DHT22;59898;52.786;6.892;2023-05-10T12:54:37;15.80;99.90
52669;DHT22;59898;52.786;6.892;2023-05-10T12:57:58;15.80;99.90
52669;DHT22;59898;52.786;6.892;2023-05-10T13:01:18;15.80;99.90
52669;DHT22;59898;52.786;6.892;2023-05-10T13:04:39;15.90;99.90
52669;DHT22;59898;52.786;6.892;2023-05-10T13:08:00;16.20;99.90
52669;DHT22;59898;52.786;6.892;2023-05-10T13:11:20;16.00;99.90
52669;DHT22;59898;52.786;6.892;2023-05-10T13:14:41;16.00;99.90
52669;DHT22;59898;52.786;6.892;2023-05-10T13:18:02;16.10;99.90
52669;DHT22;59898;52.786;6.892;2023-05-10T13:21:23;16.20;99.90
52669;DHT22;59898;52.786;6.892;2023-05-10T13:24:44;16.20;99.90
52669;DHT22;59898;52.786;6.892;2023-05-10T13:28:05;16.20;99.90
52669;DHT22;59898;52.786;6.892;2023-05-10T13:31:26;16.30;99.90
52669;DHT22;59898;52.786;6.892;2023-05-10T13:34:46;16.30;99.90
52669;DHT22;59898;52.786;6.892;2023-05-10T13:38:07;16.30;99.90
52669;DHT22;59898;52.786;6.892;2023-05-10T13:41:28;16.40;99.90
52669;DHT22;59898;52.786;6.892;2023-05-10T13:44:49;16.40;99.90
52669;DHT22;59898;52.786;6.892;2023-05-10T13:48:10;16.50;99.90
52669;DHT22;59898;52.786;6.892;2023-05-10T13:51:30;16.50;99.90
52669;DHT22;59898;52.786;6.892;2023-05-10T13:54:51;16.50;99.90
52669;DHT22;59898;52.786;6.892;2023-05-10T13:58:15;16.50;99.90
52669;DHT22;59898;52.786;6.892;2023-05-10T14:01:35;16.60;99.90
52669;DHT22;59898;52.786;6.892;2023-05-10T14:04:56;16.60;99.90
52669;DHT22;59898;52.786;6.892;2023-05-10T14:08:17;16.60;99.90
52669;DHT22;59898;52.786;6.892;2023-05-10T14:11:37;16.60;99.90
52669;DHT22;59898;52.786;6.892;2023-05-10T14:15:02;16.60;99.90
52669;DHT22;59898;52.786;6.892;2023-05-10T14:18:22;16.50;99.90
52669;DHT22;59898;52.786;6.892;2023-05-10T14:21:43;16.50;99.90
52669;DHT22;59898;52.786;6.892;2023-05-10T14:25:04;16.60;99.90
52669;DHT22;59898;52.786;6.892;2023-05-10T14:28:24;16.50;99.90
52669;DHT22;59898;52.786;6.892;2023-05-10T14:31:45;16.50;99.90
52669;DHT22;59898;52.786;6.892;2023-05-10T14:35:06;16.50;99.90
52669;DHT22;59898;52.786;6.892;2023-05-10T14:38:26;16.50;99.90
52669;DHT22;59898;52.786;6.892;2023-05-10T14:41:47;16.60;99.90
52669;DHT22;59898;52.786;6.892;2023-05-10T14:45:08;16.60;99.90
52669;DHT22;59898;52.786;6.892;2023-05-10T14:48:29;16.60;99.90
52669;DHT22;59898;52.786;6.892;2023-05-10T14:51:50;16.60;99.90
52669;DHT22;59898;52.786;6.892;2023-05-10T14:55:10;16.70;99.90
52669;DHT22;59898;52.786;6.892;2023-05-10T14:58:31;16.70;99.90
52669;DHT22;59898;52.786;6.892;2023-05-10T15:01:51;16.70;99.90
52669;DHT22;59898;52.786;6.892;2023-05-10T15:05:12;16.70;99.90
52669;DHT22;59898;52.786;6.892;2023-05-10T15:08:33;16.80;99.90
52669;DHT22;59898;52.786;6.892;2023-05-10T15:11:54;16.80;99.90
52669;DHT22;59898;52.786;6.892;2023-05-10T15:15:15;16.70;99.90
52669;DHT22;59898;52.786;6.892;2023-05-10T15:18:35;16.70;99.90
52669;DHT22;59898;52.786;6.892;2023-05-10T15:21:56;16.80;99.90
52669;DHT22;59898;52.786;6.892;2023-05-10T15:25:16;16.70;99.90
52669;DHT22;59898;52.786;6.892;2023-05-10T15:28:37;16.70;99.90
52669;DHT22;59898;52.786;6.892;2023-05-10T15:31:58;16.70;99.90
52669;DHT22;59898;52.786;6.892;2023-05-10T15:35:18;16.60;99.90
52669;DHT22;59898;52.786;6.892;2023-05-10T15:38:39;16.60;99.90
52669;DHT22;59898;52.786;6.892;2023-05-10T15:42:00;16.60;99.90
52669;DHT22;59898;52.786;6.892;2023-05-10T15:45:21;16.50;99.90
52669;DHT22;59898;52.786;6.892;2023-05-10T15:48:42;16.50;99.90
52669;DHT22;59898;52.786;6.892;2023-05-10T15:52:02;16.50;99.90
52669;DHT22;59898;52.786;6.892;2023-05-10T15:55:23;16.50;99.90
52669;DHT22;59898;52.786;6.892;2023-05-10T15:58:44;16.50;99.90
52669;DHT22;59898;52.786;6.892;2023-05-10T16:02:05;16.60;99.90
52669;DHT22;59898;52.786;6.892;2023-05-10T16:05:26;16.50;99.90
52669;DHT22;59898;52.786;6.892;2023-05-10T16:08:51;16.50;99.90
52669;DHT22;59898;52.786;6.892;2023-05-10T16:12:11;16.50;99.90
52669;DHT22;59898;52.786;6.892;2023-05-10T16:15:32;16.50;99.90
52669;DHT22;59898;52.786;6.892;2023-05-10T16:18:53;16.50;99.90
52669;DHT22;59898;52.786;6.892;2023-05-10T16:22:13;16.50;99.90
52669;DHT22;59898;52.786;6.892;2023-05-10T16:25:34;16.50;99.90
52669;DHT22;59898;52.786;6.892;2023-05-10T16:28:55;16.50;99.90
52669;DHT22;59898;52.786;6.892;2023-05-10T16:32:16;16.50;99.90
52669;DHT22;59898;52.786;6.892;2023-05-10T16:35:36;16.50;99.90
52669;DHT22;59898;52.786;6.892;2023-05-10T16:38:57;16.50;99.90
52669;DHT22;59898;52.786;6.892;2023-05-10T16:42:18;16.50;99.90
52669;DHT22;59898;52.786;6.892;2023-05-10T16:45:38;16.50;99.90
52669;DHT22;59898;52.786;6.892;2023-05-10T16:48:59;16.50;99.90
52669;DHT22;59898;52.786;6.892;2023-05-10T16:52:19;16.50;99.90
52669;DHT22;59898;52.786;6.892;2023-05-10T16:55:40;16.50;99.90
52669;DHT22;59898;52.786;6.892;2023-05-10T16:59:01;16.50;99.90
52669;DHT22;59898;52.786;6.892;2023-05-10T17:02:22;16.60;99.90
52669;DHT22;59898;52.786;6.892;2023-05-10T17:05:43;16.50;99.90
52669;DHT22;59898;52.786;6.892;2023-05-10T17:09:03;16.60;99.90
52669;DHT22;59898;52.786;6.892;2023-05-10T17:12:25;16.60;99.90
52669;DHT22;59898;52.786;6.892;2023-05-10T17:15:45;16.60;99.90
52669;DHT22;59898;52.786;6.892;2023-05-10T17:19:07;16.60;99.90
52669;DHT22;59898;52.786;6.892;2023-05-10T17:22:28;16.70;99.90
52669;DHT22;59898;52.786;6.892;2023-05-10T17:25:48;16.50;99.90
52669;DHT22;59898;52.786;6.892;2023-05-10T17:29:09;16.60;99.90
52669;DHT22;59898;52.786;6.892;2023-05-10T17:32:30;16.60;99.90
52669;DHT22;59898;52.786;6.892;2023-05-10T17:35:50;16.60;99.90
52669;DHT22;59898;52.786;6.892;2023-05-10T17:39:11;16.60;99.90
52669;DHT22;59898;52.786;6.892;2023-05-10T17:42:33;16.60;99.90
52669;DHT22;59898;52.786;6.892;2023-05-10T17:45:53;16.60;99.90
52669;DHT22;59898;52.786;6.892;2023-05-10T17:49:14;16.60;99.90
52669;DHT22;59898;52.786;6.892;2023-05-10T17:52:34;16.60;99.90
52669;DHT22;59898;52.786;6.892;2023-05-10T17:55:55;16.60;99.90
52669;DHT22;59898;52.786;6.892;2023-05-10T17:59:20;16.50;99.90
52669;DHT22;59898;52.786;6.892;2023-05-10T18:02:41;16.50;99.90
52669;DHT22;59898;52.786;6.892;2023-05-10T18:06:02;16.50;99.90
52669;DHT22;59898;52.786;6.892;2023-05-10T18:09:23;16.50;99.90
52669;DHT22;59898;52.786;6.892;2023-05-10T18:12:44;16.50;99.90
52669;DHT22;59898;52.786;6.892;2023-05-10T18:16:05;16.50;99.90
52669;DHT22;59898;52.786;6.892;2023-05-10T18:19:27;16.50;99.90
52669;DHT22;59898;52.786;6.892;2023-05-10T18:22:48;16.50;99.90
52669;DHT22;59898;52.786;6.892;2023-05-10T18:26:09;16.50;99.90
52669;DHT22;59898;52.786;6.892;2023-05-10T18:29:30;16.50;99.90
52669;DHT22;59898;52.786;6.892;2023-05-10T18:32:50;16.50;99.90
52669;DHT22;59898;52.786;6.892;2023-05-10T18:36:11;16.50;99.90
52669;DHT22;59898;52.786;6.892;2023-05-10T18:39:32;16.50;99.90
52669;DHT22;59898;52.786;6.892;2023-05-10T18:42:53;16.40;99.90
52669;DHT22;59898;52.786;6.892;2023-05-10T18:46:13;16.40;99.90
52669;DHT22;59898;52.786;6.892;2023-05-10T18:49:34;16.40;99.90
52669;DHT22;59898;52.786;6.892;2023-05-10T18:52:55;16.40;99.90
52669;DHT22;59898;52.786;6.892;2023-05-10T18:56:15;16.30;99.90
52669;DHT22;59898;52.786;6.892;2023-05-10T18:59:36;16.30;99.90
52669;DHT22;59898;52.786;6.892;2023-05-10T19:02:57;16.30;99.90
52669;DHT22;59898;52.786;6.892;2023-05-10T19:06:17;16.30;99.90
52669;DHT22;59898;52.786;6.892;2023-05-10T19:09:38;16.30;99.90
52669;DHT22;59898;52.786;6.892;2023-05-10T19:12:58;16.30;99.90
52669;DHT22;59898;52.786;6.892;2023-05-10T19:16:19;16.20;99.90
52669;DHT22;59898;52.786;6.892;2023-05-10T19:19:40;16.20;99.90
52669;DHT22;59898;52.786;6.892;2023-05-10T19:23:00;16.20;99.90
52669;DHT22;59898;52.786;6.892;2023-05-10T19:26:21;16.20;99.90
52669;DHT22;59898;52.786;6.892;2023-05-10T19:29:42;16.20;99.90
52669;DHT22;59898;52.786;6.892;2023-05-10T19:33:03;16.10;99.90
52669;DHT22;59898;52.786;6.892;2023-05-10T19:36:24;16.10;99.90
52669;DHT22;59898;52.786;6.892;2023-05-10T19:39:45;16.10;99.90
52669;DHT22;59898;52.786;6.892;2023-05-10T19:43:05;16.00;99.90
52669;DHT22;59898;52.786;6.892;2023-05-10T19:46:26;15.90;99.90
52669;DHT22;59898;52.786;6.892;2023-05-10T19:49:46;15.90;99.90
52669;DHT22;59898;52.786;6.892;2023-05-10T19:53:07;15.80;99.90
52669;DHT22;59898;52.786;6.892;2023-05-10T19:56:27;15.80;99.90
52669;DHT22;59898;52.786;6.892;2023-05-10T19:59:48;15.70;99.90
52669;DHT22;59898;52.786;6.892;2023-05-10T20:03:09;15.70;99.90
52669;DHT22;59898;52.786;6.892;2023-05-10T20:06:30;15.70;99.90
52669;DHT22;59898;52.786;6.892;2023-05-10T20:09:51;15.70;99.90
52669;DHT22;59898;52.786;6.892;2023-05-10T20:13:11;15.70;99.90
52669;DHT22;59898;52.786;6.892;2023-05-10T20:16:32;15.60;99.90
52669;DHT22;59898;52.786;6.892;2023-05-10T20:19:52;15.60;99.90
52669;DHT22;59898;52.786;6.892;2023-05-10T20:23:13;15.50;99.90
52669;DHT22;59898;52.786;6.892;2023-05-10T20:26:34;15.50;99.90
52669;DHT22;59898;52.786;6.892;2023-05-10T20:29:54;15.50;99.90
52669;DHT22;59898;52.786;6.892;2023-05-10T20:33:15;15.50;99.90
52669;DHT22;59898;52.786;6.892;2023-05-10T20:36:36;15.30;99.90
52669;DHT22;59898;52.786;6.892;2023-05-10T20:39:57;15.20;99.90
52669;DHT22;59898;52.786;6.892;2023-05-10T20:43:18;15.10;99.90
52669;DHT22;59898;52.786;6.892;2023-05-10T20:46:40;15.10;99.90
52669;DHT22;59898;52.786;6.892;2023-05-10T20:50:01;15.10;99.90
52669;DHT22;59898;52.786;6.892;2023-05-10T20:53:22;15.00;99.90
52669;DHT22;59898;52.786;6.892;2023-05-10T20:56:42;15.10;99.90
52669;DHT22;59898;52.786;6.892;2023-05-10T21:00:03;15.10;99.90
52669;DHT22;59898;52.786;6.892;2023-05-10T21:03:24;15.10;99.90
52669;DHT22;59898;52.786;6.892;2023-05-10T21:06:45;15.10;99.90
52669;DHT22;59898;52.786;6.892;2023-05-10T21:10:06;15.00;99.90
52669;DHT22;59898;52.786;6.892;2023-05-10T21:13:27;15.10;99.90
52669;DHT22;59898;52.786;6.892;2023-05-10T21:16:48;15.10;99.90
52669;DHT22;59898;52.786;6.892;2023-05-10T21:20:10;15.10;99.90
52669;DHT22;59898;52.786;6.892;2023-05-10T21:23:31;15.00;99.90
52669;DHT22;59898;52.786;6.892;2023-05-10T21:26:52;14.90;99.90
52669;DHT22;59898;52.786;6.892;2023-05-10T21:30:12;14.80;99.90
52669;DHT22;59898;52.786;6.892;2023-05-10T21:33:33;14.80;99.90
52669;DHT22;59898;52.786;6.892;2023-05-10T21:36:54;14.70;99.90